PWSweather.com
Personal Weather Stations
Station Observations
KV9EWX
Winnebago, Il, Winnebago, IL 61088

Winnebago, IlWinnebago, IL 61088

Lat: 42.261175, Lon: -89.236369

Elevation: 892

Station Type: Lacrosse ws-2811

Latest ConditionsUpdated 3:10:06 AM CDT Thursday, Aug 21, 2014
Currently Today's Max Today's Min Today's Average
Temperature 67.0°F19.4°C 67.4°F19.7°C 66.5°F19.2°C 67.0°F19.4°C
Dew Point 63.7°F17.6°C 64.4°F18.0°C 62.9°F17.2°C 63.7°F17.6°C
Winds 2.5 mph SE4.0 kmh SE 3.3 mph S5.3 kmh S - 1.3 mph 2.1 kmh
Wind Gusts 3.5 mph5.6 kmh 7.0 mph11.3 kmh - -
Humidity 89% 90% 88% 89%
Pressure 29.54 in1000.3 mb 29.57 in1001.4 mb 29.54 in1000.3 mb -
Hour Temp Dew Point Humidity Winds Wind Gusts Pressure Precip Precip Rate Daily Precip Total
03:10 AM 67.0°F19.4°C 63.7°F17.6°C 89% 2.5 mph SE4.0 kmh SE 3.5 mph5.6 kmh 29.54 in1000.3 mb 0.00 in0.0 mm 0.00 in/hr0.0 mm/hr 0.00 in0.0 mm
03:05 AM 67.0°F19.4°C 63.7°F17.6°C 89% 1.7 mph SE2.7 kmh SE 3.5 mph5.6 kmh 29.54 in1000.3 mb 0.00 in0.0 mm 0.00 in/hr0.0 mm/hr 0.00 in0.0 mm
02:59 AM 67.0°F19.4°C 63.7°F17.6°C 89% 1.8 mph SE2.9 kmh SE 3.5 mph5.6 kmh 29.54 in1000.3 mb 0.00 in0.0 mm 0.00 in/hr0.0 mm/hr 0.00 in0.0 mm
02:55 AM 67.0°F19.4°C 63.7°F17.6°C 89% 1.4 mph SSE2.3 kmh SSE 1.9 mph3.1 kmh 29.55 in1000.7 mb 0.00 in0.0 mm 0.00 in/hr0.0 mm/hr 0.00 in0.0 mm
02:50 AM 67.0°F19.4°C 63.7°F17.6°C 89% 1.1 mph SE1.8 kmh SE 1.9 mph3.1 kmh 29.55 in1000.7 mb 0.00 in0.0 mm 0.00 in/hr0.0 mm/hr 0.00 in0.0 mm
02:44 AM 67.2°F19.6°C 63.5°F17.5°C 88% 0.8 mph SE1.3 kmh SE 3.9 mph6.3 kmh 29.55 in1000.7 mb 0.00 in0.0 mm 0.00 in/hr0.0 mm/hr 0.00 in0.0 mm
02:39 AM 67.2°F19.6°C 63.5°F17.5°C 88% 1.2 mph E1.9 kmh E 3.9 mph6.3 kmh 29.54 in1000.3 mb 0.00 in0.0 mm 0.00 in/hr0.0 mm/hr 0.00 in0.0 mm
02:34 AM 67.2°F19.6°C 63.5°F17.5°C 88% 2.0 mph SE3.2 kmh SE 3.1 mph5.0 kmh 29.54 in1000.3 mb 0.00 in0.0 mm 0.00 in/hr0.0 mm/hr 0.00 in0.0 mm
02:29 AM 67.2°F19.6°C 63.5°F17.5°C 88% 0.3 mph S0.5 kmh S 0.3 mph0.5 kmh 29.54 in1000.3 mb 0.00 in0.0 mm 0.00 in/hr0.0 mm/hr 0.00 in0.0 mm
02:24 AM 67.2°F19.6°C 63.5°F17.5°C 88% Calm Calm 0.7 mph1.1 kmh 29.55 in1000.7 mb 0.00 in0.0 mm 0.00 in/hr0.0 mm/hr 0.00 in0.0 mm
02:19 AM 67.2°F19.6°C 63.5°F17.5°C 88% Calm Calm 1.6 mph2.6 kmh 29.54 in1000.3 mb 0.00 in0.0 mm 0.00 in/hr0.0 mm/hr 0.00 in0.0 mm
02:14 AM 67.4°F19.7°C 63.7°F17.6°C 88% 0.7 mph S1.1 kmh S 1.6 mph2.6 kmh 29.55 in1000.7 mb 0.00 in0.0 mm 0.00 in/hr0.0 mm/hr 0.00 in0.0 mm
02:09 AM 67.4°F19.7°C 63.7°F17.6°C 88% 0.6 mph S1.0 kmh S 0.7 mph1.1 kmh 29.55 in1000.7 mb 0.00 in0.0 mm 0.00 in/hr0.0 mm/hr 0.00 in0.0 mm
02:04 AM 67.4°F19.7°C 63.7°F17.6°C 88% 0.3 mph S0.5 kmh S 1.9 mph3.1 kmh 29.55 in1000.7 mb 0.00 in0.0 mm 0.00 in/hr0.0 mm/hr 0.00 in0.0 mm
01:59 AM 67.4°F19.7°C 64.0°F17.8°C 89% Calm Calm 2.3 mph3.7 kmh 29.55 in1000.7 mb 0.00 in0.0 mm 0.00 in/hr0.0 mm/hr 0.00 in0.0 mm
01:54 AM 67.4°F19.7°C 64.0°F17.8°C 89% 1.1 mph S1.8 kmh S 2.3 mph3.7 kmh 29.56 in1001.0 mb 0.00 in0.0 mm 0.00 in/hr0.0 mm/hr 0.00 in0.0 mm
01:49 AM 67.4°F19.7°C 64.0°F17.8°C 89% 1.4 mph SSW2.3 kmh SSW 3.1 mph5.0 kmh 29.56 in1001.0 mb 0.00 in0.0 mm 0.00 in/hr0.0 mm/hr 0.00 in0.0 mm
01:44 AM 67.4°F19.7°C 64.0°F17.8°C 89% 0.3 mph SSW0.5 kmh SSW 4.4 mph7.1 kmh 29.56 in1001.0 mb 0.00 in0.0 mm 0.00 in/hr0.0 mm/hr 0.00 in0.0 mm
01:39 AM 67.4°F19.7°C 64.0°F17.8°C 89% 1.0 mph S1.6 kmh S 6.0 mph9.7 kmh 29.56 in1001.0 mb 0.00 in0.0 mm 0.00 in/hr0.0 mm/hr 0.00 in0.0 mm
01:34 AM 67.4°F19.7°C 64.4°F18.0°C 90% 3.1 mph S5.0 kmh S 6.0 mph9.7 kmh 29.56 in1001.0 mb 0.00 in0.0 mm 0.00 in/hr0.0 mm/hr 0.00 in0.0 mm
01:29 AM 67.4°F19.7°C 64.4°F18.0°C 90% 3.1 mph S5.0 kmh S 7.0 mph11.3 kmh 29.56 in1001.0 mb 0.00 in0.0 mm 0.00 in/hr0.0 mm/hr 0.00 in0.0 mm
01:24 AM 67.2°F19.6°C 64.2°F17.9°C 90% 3.3 mph S5.3 kmh S 7.0 mph11.3 kmh 29.56 in1001.0 mb 0.00 in0.0 mm 0.00 in/hr0.0 mm/hr 0.00 in0.0 mm
01:19 AM 67.0°F19.4°C 64.0°F17.8°C 90% 2.8 mph S4.5 kmh S 5.4 mph8.7 kmh 29.56 in1001.0 mb 0.00 in0.0 mm 0.00 in/hr0.0 mm/hr 0.00 in0.0 mm
01:14 AM 66.7°F19.3°C 63.7°F17.6°C 90% 2.2 mph S3.5 kmh S 5.4 mph8.7 kmh 29.56 in1001.0 mb 0.00 in0.0 mm 0.00 in/hr0.0 mm/hr 0.00 in0.0 mm
01:09 AM 66.7°F19.3°C 63.7°F17.6°C 90% 2.8 mph SSW4.5 kmh SSW 4.7 mph7.6 kmh 29.56 in1001.0 mb 0.00 in0.0 mm 0.00 in/hr0.0 mm/hr 0.00 in0.0 mm
01:04 AM 66.7°F19.3°C 63.7°F17.6°C 90% 2.3 mph S3.7 kmh S 3.1 mph5.0 kmh 29.56 in1001.0 mb 0.00 in0.0 mm 0.00 in/hr0.0 mm/hr 0.00 in0.0 mm
12:59 AM 66.7°F19.3°C 63.7°F17.6°C 90% Calm Calm 0.7 mph1.1 kmh 29.56 in1001.0 mb 0.00 in0.0 mm 0.00 in/hr0.0 mm/hr 0.00 in0.0 mm
12:54 AM 66.7°F19.3°C 63.7°F17.6°C 90% 0.4 mph SSE0.6 kmh SSE 1.2 mph1.9 kmh 29.56 in1001.0 mb 0.00 in0.0 mm 0.00 in/hr0.0 mm/hr 0.00 in0.0 mm
12:49 AM 66.7°F19.3°C 63.7°F17.6°C 90% 0.5 mph SSE0.8 kmh SSE 3.5 mph5.6 kmh 29.56 in1001.0 mb 0.00 in0.0 mm 0.00 in/hr0.0 mm/hr 0.00 in0.0 mm
12:44 AM 66.7°F19.3°C 63.7°F17.6°C 90% 0.5 mph S0.8 kmh S 4.4 mph7.1 kmh 29.56 in1001.0 mb 0.00 in0.0 mm 0.00 in/hr0.0 mm/hr 0.00 in0.0 mm
12:39 AM 66.7°F19.3°C 63.7°F17.6°C 90% 2.1 mph S3.4 kmh S 4.4 mph7.1 kmh 29.56 in1001.0 mb 0.00 in0.0 mm 0.00 in/hr0.0 mm/hr 0.00 in0.0 mm
12:34 AM 66.7°F19.3°C 63.7°F17.6°C 90% 2.1 mph S3.4 kmh S 4.4 mph7.1 kmh 29.56 in1001.0 mb 0.00 in0.0 mm 0.00 in/hr0.0 mm/hr 0.00 in0.0 mm
12:29 AM 66.7°F19.3°C 63.4°F17.4°C 89% 1.3 mph SSW2.1 kmh SSW 2.3 mph3.7 kmh 29.57 in1001.4 mb 0.00 in0.0 mm 0.00 in/hr0.0 mm/hr 0.00 in0.0 mm
12:24 AM 66.5°F19.2°C 63.2°F17.3°C 89% 1.2 mph SSE1.9 kmh SSE 4.4 mph7.1 kmh 29.56 in1001.0 mb 0.00 in0.0 mm 0.00 in/hr0.0 mm/hr 0.00 in0.0 mm
12:19 AM 66.5°F19.2°C 63.2°F17.3°C 89% 1.1 mph SE1.8 kmh SE 4.4 mph7.1 kmh 29.56 in1001.0 mb 0.00 in0.0 mm 0.00 in/hr0.0 mm/hr 0.00 in0.0 mm
12:14 AM 66.5°F19.2°C 63.2°F17.3°C 89% 1.6 mph SSE2.6 kmh SSE 2.8 mph4.5 kmh 29.56 in1001.0 mb 0.00 in0.0 mm 0.00 in/hr0.0 mm/hr 0.00 in0.0 mm
12:08 AM 66.5°F19.2°C 63.2°F17.3°C 89% 0.3 mph ESE0.5 kmh ESE 0.3 mph0.5 kmh 29.56 in1001.0 mb 0.00 in0.0 mm 0.00 in/hr0.0 mm/hr 0.00 in0.0 mm
12:03 AM 66.5°F19.2°C 62.9°F17.2°C 88% Calm Calm -- 29.56 in1001.0 mb 0.00 in0.0 mm 0.00 in/hr0.0 mm/hr 0.00 in0.0 mm